createdAt,value
2022-11-24T00:01:30.119Z,2.33
2022-11-24T00:04:01.397Z,3.57
2022-11-24T00:06:30.175Z,2.23
2022-11-24T00:08:57.963Z,2.40
2022-11-24T00:11:30.889Z,2.60
2022-11-24T00:13:58.742Z,2.60
2022-11-24T00:16:34.157Z,2.70
2022-11-24T00:19:03.779Z,2.17
2022-11-24T00:21:32.054Z,2.50
2022-11-24T00:23:59.526Z,2.37
2022-11-24T00:26:30.187Z,2.30
2022-11-24T00:29:00.111Z,2.60
2022-11-24T00:31:29.849Z,2.83
2022-11-24T00:33:59.520Z,2.83
2022-11-24T00:36:29.209Z,1.90
2022-11-24T00:38:58.317Z,2.40
2022-11-24T00:41:26.619Z,2.30
2022-11-24T00:43:54.358Z,3.00
2022-11-24T00:46:22.650Z,2.57
2022-11-24T00:48:50.144Z,2.20
2022-11-24T00:51:18.367Z,2.40
2022-11-24T00:53:45.586Z,2.30
2022-11-24T00:56:12.797Z,2.30
2022-11-24T00:58:40.197Z,2.93
2022-11-24T01:01:16.085Z,2.70
2022-11-24T01:03:43.737Z,1.93
2022-11-24T01:06:22.948Z,2.10
2022-11-24T01:08:50.640Z,2.47
2022-11-24T01:11:21.236Z,2.27
2022-11-24T01:13:51.163Z,2.20
2022-11-24T01:16:25.847Z,2.13
2022-11-24T01:18:53.413Z,1.90
2022-11-24T01:21:21.145Z,2.33
2022-11-24T01:23:48.370Z,2.53
2022-11-24T01:26:18.442Z,2.20
2022-11-24T01:28:47.520Z,2.40
2022-11-24T01:31:16.649Z,2.20
2022-11-24T01:33:44.094Z,2.30
2022-11-24T01:36:11.397Z,2.10
2022-11-24T01:38:38.531Z,2.17
2022-11-24T01:41:08.362Z,2.10
2022-11-24T01:43:35.623Z,2.20
2022-11-24T01:46:23.088Z,2.57
2022-11-24T01:49:17.787Z,2.50
2022-11-24T01:51:59.686Z,2.30
2022-11-24T01:54:33.549Z,2.23
2022-11-24T01:57:09.332Z,2.50
2022-11-24T01:59:37.115Z,2.07
2022-11-24T02:02:04.642Z,2.27
2022-11-24T02:04:34.494Z,2.90
2022-11-24T02:07:05.575Z,2.43
2022-11-24T02:09:42.653Z,2.00
2022-11-24T02:12:09.887Z,2.17
2022-11-24T02:14:39.394Z,2.07
2022-11-24T02:17:06.691Z,1.80
2022-11-24T02:19:39.781Z,1.80
2022-11-24T02:22:21.423Z,2.53
2022-11-24T02:24:56.125Z,1.83
2022-11-24T02:27:23.342Z,2.40
2022-11-24T02:29:50.627Z,1.77
2022-11-24T02:32:19.971Z,2.07
2022-11-24T02:34:47.182Z,2.13
2022-11-24T02:37:14.324Z,1.30
2022-11-24T02:39:41.461Z,1.57
2022-11-24T02:42:13.399Z,1.93
2022-11-24T02:44:47.208Z,1.60
2022-11-24T02:47:14.387Z,1.77
2022-11-24T02:49:41.825Z,1.60
2022-11-24T02:52:09.037Z,1.63
2022-11-24T02:54:36.610Z,1.70
2022-11-24T02:57:04.286Z,1.80
2022-11-24T02:59:31.427Z,1.50
2022-11-24T03:01:58.651Z,1.30
2022-11-24T03:04:25.839Z,1.60
2022-11-24T03:06:52.966Z,1.30
2022-11-24T03:09:20.139Z,1.30
2022-11-24T03:11:47.305Z,1.50
2022-11-24T03:14:14.458Z,1.50
2022-11-24T03:16:41.586Z,1.60
2022-11-24T03:19:08.726Z,1.40
2022-11-24T03:21:36.729Z,1.53
2022-11-24T03:24:04.220Z,1.40
2022-11-24T03:26:33.746Z,1.53
2022-11-24T03:29:01.937Z,1.43
2022-11-24T03:31:29.208Z,1.70
2022-11-24T03:33:56.436Z,1.47
2022-11-24T03:36:23.582Z,1.37
2022-11-24T03:38:50.754Z,1.30
2022-11-24T03:41:17.874Z,1.40
2022-11-24T03:43:45.043Z,1.33
2022-11-24T03:46:12.872Z,1.50
2022-11-24T03:48:40.346Z,1.33
2022-11-24T03:51:07.629Z,1.50
2022-11-24T03:53:34.831Z,1.53
2022-11-24T03:56:02.464Z,1.40
2022-11-24T03:58:31.401Z,1.43
2022-11-24T04:00:58.721Z,1.30
2022-11-24T04:03:26.188Z,1.57
2022-11-24T04:05:53.310Z,1.37
2022-11-24T04:08:20.552Z,1.30
2022-11-24T04:10:52.790Z,1.30
2022-11-24T04:13:22.553Z,1.27
2022-11-24T04:15:50.431Z,1.70
2022-11-24T04:18:17.647Z,1.57
2022-11-24T04:20:45.151Z,1.30
2022-11-24T04:23:12.352Z,1.40
2022-11-24T04:25:41.371Z,1.50
2022-11-24T04:28:09.676Z,1.30
2022-11-24T04:30:38.469Z,1.30
2022-11-24T04:33:05.599Z,1.57
2022-11-24T04:35:32.734Z,1.43
2022-11-24T04:38:02.749Z,1.37
2022-11-24T04:40:30.126Z,1.40
2022-11-24T04:42:58.290Z,1.37
2022-11-24T04:45:25.612Z,2.30
2022-11-24T04:47:52.765Z,1.40
2022-11-24T04:50:20.673Z,1.50
2022-11-24T04:52:47.839Z,1.70
2022-11-24T04:55:15.078Z,1.40
2022-11-24T04:57:42.224Z,1.50
2022-11-24T05:00:10.437Z,1.37
2022-11-24T05:02:37.851Z,1.43
2022-11-24T05:05:06.478Z,1.53
2022-11-24T05:07:34.691Z,1.73
2022-11-24T05:10:20.681Z,1.70
2022-11-24T05:12:55.490Z,1.40
2022-11-24T05:15:23.198Z,1.87
2022-11-24T05:17:50.529Z,1.70
2022-11-24T05:20:18.174Z,1.97
2022-11-24T05:22:45.525Z,1.87
2022-11-24T05:25:14.151Z,2.10
2022-11-24T05:27:41.568Z,2.10
2022-11-24T05:30:09.300Z,1.93
2022-11-24T05:32:36.451Z,1.97
2022-11-24T05:35:04.484Z,2.20
2022-11-24T05:37:31.872Z,2.43
2022-11-24T05:39:59.051Z,2.30
2022-11-24T05:42:46.766Z,1.87
2022-11-24T05:45:20.067Z,2.00
2022-11-24T05:47:48.166Z,2.20
2022-11-24T05:50:17.651Z,2.00
2022-11-24T05:52:45.358Z,1.70
2022-11-24T05:55:13.243Z,1.80
2022-11-24T05:57:40.410Z,2.37
2022-11-24T06:00:09.356Z,2.43
2022-11-24T06:02:42.584Z,2.50
2022-11-24T06:05:09.838Z,2.40
2022-11-24T06:07:37.159Z,2.43
2022-11-24T06:10:04.801Z,2.20
2022-11-24T06:12:32.237Z,2.00
2022-11-24T06:14:59.353Z,2.13
2022-11-24T06:17:26.501Z,2.00
2022-11-24T06:19:53.765Z,2.17
2022-11-24T06:22:20.973Z,2.23
2022-11-24T06:24:50.131Z,2.33
2022-11-24T06:27:17.697Z,2.47
2022-11-24T06:29:44.939Z,2.07
2022-11-24T06:32:12.086Z,2.27
2022-11-24T06:34:39.294Z,2.40
2022-11-24T06:37:06.513Z,2.33
2022-11-24T06:39:33.870Z,2.20
2022-11-24T06:42:01.072Z,2.40
2022-11-24T06:44:28.301Z,2.40
2022-11-24T06:46:55.454Z,2.20
2022-11-24T06:49:22.640Z,2.33
2022-11-24T06:51:49.890Z,2.53
2022-11-24T06:54:21.178Z,2.30
2022-11-24T06:56:48.365Z,2.40
2022-11-24T06:59:18.464Z,2.70
2022-11-24T07:01:46.920Z,2.13
2022-11-24T07:04:14.830Z,2.47
2022-11-24T07:06:42.798Z,2.80
2022-11-24T07:09:12.339Z,2.50
2022-11-24T07:11:40.152Z,2.30
2022-11-24T07:14:07.665Z,2.60
2022-11-24T07:16:35.048Z,3.00
2022-11-24T07:19:02.621Z,2.60
2022-11-24T07:21:30.732Z,2.40
2022-11-24T07:23:58.556Z,2.30
2022-11-24T07:26:26.353Z,3.00
2022-11-24T07:28:53.588Z,2.60
2022-11-24T07:31:24.731Z,2.50
2022-11-24T07:33:53.847Z,2.77
2022-11-24T07:36:21.735Z,2.43
2022-11-24T07:38:48.946Z,2.20
2022-11-24T07:41:18.166Z,2.20
2022-11-24T07:43:46.096Z,2.20
2022-11-24T07:46:16.905Z,2.40
2022-11-24T07:48:44.279Z,2.10
2022-11-24T07:51:11.882Z,2.37
2022-11-24T07:53:39.510Z,2.60
2022-11-24T07:56:07.193Z,2.73
2022-11-24T07:58:36.164Z,2.70
2022-11-24T08:01:29.507Z,2.37
2022-11-24T08:03:56.701Z,2.37
2022-11-24T08:06:27.238Z,2.20
2022-11-24T08:08:56.466Z,2.27
2022-11-24T08:11:24.288Z,2.10
2022-11-24T08:13:51.674Z,2.13
2022-11-24T08:16:19.570Z,2.23
2022-11-24T08:18:51.992Z,2.03
2022-11-24T08:21:19.209Z,2.20
2022-11-24T08:23:46.958Z,2.20
2022-11-24T08:26:18.913Z,2.30
2022-11-24T08:28:47.167Z,2.37
2022-11-24T08:31:18.502Z,2.27
2022-11-24T08:33:46.443Z,2.23
2022-11-24T08:36:16.283Z,2.50
2022-11-24T08:38:44.688Z,2.53
2022-11-24T08:41:14.751Z,2.20
2022-11-24T08:43:43.362Z,2.30
2022-11-24T08:46:13.728Z,2.20
2022-11-24T08:48:41.497Z,2.50
2022-11-24T08:51:14.439Z,2.27
2022-11-24T08:53:43.014Z,2.20
2022-11-24T08:56:11.939Z,2.27
2022-11-24T08:58:39.569Z,2.50
2022-11-24T09:01:17.713Z,2.30
2022-11-24T09:03:50.695Z,2.40
2022-11-24T09:06:24.836Z,2.57
2022-11-24T09:08:54.411Z,2.17
2022-11-24T09:11:22.225Z,2.37
2022-11-24T09:13:49.780Z,2.60
2022-11-24T09:16:22.572Z,2.40
2022-11-24T09:18:56.386Z,2.30
2022-11-24T09:21:24.045Z,2.30
2022-11-24T09:23:53.220Z,2.70
2022-11-24T09:26:24.243Z,3.03
2022-11-24T09:28:54.437Z,2.20
2022-11-24T09:31:24.625Z,2.10
2022-11-24T09:33:52.347Z,2.40
2022-11-24T09:36:20.388Z,2.40
2022-11-24T09:38:47.835Z,2.63
2022-11-24T09:41:18.033Z,2.20
2022-11-24T09:44:22.454Z,2.50
2022-11-24T09:47:01.644Z,3.43
2022-11-24T09:49:38.862Z,2.23
2022-11-24T09:52:13.602Z,2.50
2022-11-24T09:54:51.150Z,2.37
2022-11-24T09:57:21.654Z,2.60
2022-11-24T09:59:48.809Z,2.57
2022-11-24T10:02:15.954Z,2.80
2022-11-24T10:04:45.893Z,2.50
2022-11-24T10:07:26.546Z,2.53
2022-11-24T10:10:24.538Z,2.70
2022-11-24T10:13:11.141Z,2.53
2022-11-24T10:15:48.217Z,2.03
2022-11-24T10:18:47.971Z,2.90
2022-11-24T10:21:31.652Z,2.33
2022-11-24T10:24:23.751Z,2.10
2022-11-24T10:27:02.339Z,1.97
2022-11-24T10:29:43.304Z,2.10
2022-11-24T10:32:35.260Z,3.30
2022-11-24T10:35:18.520Z,1.77
2022-11-24T10:37:55.526Z,2.53
2022-11-24T10:40:56.647Z,2.13
2022-11-24T10:43:28.655Z,1.87
2022-11-24T10:46:05.304Z,2.03
2022-11-24T10:48:58.500Z,2.07
2022-11-24T10:51:40.375Z,2.10
2022-11-24T10:54:20.168Z,2.00
2022-11-24T10:56:51.438Z,1.60
2022-11-24T10:59:32.707Z,1.80
2022-11-24T11:02:00.577Z,2.00
2022-11-24T11:04:33.264Z,2.10
2022-11-24T11:07:18.685Z,1.73
2022-11-24T11:09:46.843Z,1.60
2022-11-24T11:12:45.028Z,1.90
2022-11-24T11:15:30.290Z,1.90
2022-11-24T11:18:00.215Z,1.90
2022-11-24T11:20:32.623Z,1.67
2022-11-24T11:23:04.817Z,1.60
2022-11-24T11:25:36.326Z,2.10
2022-11-24T11:28:29.819Z,1.90
2022-11-24T11:34:04.743Z,3.70
2022-11-24T11:36:35.477Z,1.70
2022-11-24T11:39:03.600Z,2.93
2022-11-24T11:41:35.863Z,4.47
2022-11-24T11:44:09.063Z,1.80
2022-11-24T11:46:36.868Z,1.70
2022-11-24T11:49:04.325Z,2.50
2022-11-24T11:51:40.619Z,5.57
2022-11-24T11:54:43.240Z,2.37
2022-11-24T11:57:11.740Z,1.90
2022-11-24T11:59:59.055Z,1.83
2022-11-24T12:02:53.650Z,1.60
2022-11-24T12:05:34.759Z,2.20
2022-11-24T12:08:21.394Z,1.93
2022-11-24T12:11:14.922Z,2.10
2022-11-24T12:14:04.006Z,1.93
2022-11-24T12:16:57.940Z,1.93
2022-11-24T12:19:43.794Z,2.20
2022-11-24T12:22:32.998Z,1.90
2022-11-24T12:25:23.599Z,1.90
2022-11-24T12:27:57.071Z,1.70
2022-11-24T12:30:24.596Z,1.70
2022-11-24T12:32:57.363Z,1.77
2022-11-24T12:35:41.880Z,1.83
2022-11-24T12:38:41.482Z,1.97
2022-11-24T12:41:43.774Z,1.70
2022-11-24T12:44:37.898Z,1.80
2022-11-24T12:47:37.080Z,3.97
2022-11-24T12:50:17.783Z,1.60
2022-11-24T12:53:00.793Z,1.80
2022-11-24T12:55:30.065Z,2.10
2022-11-24T12:58:09.390Z,1.70
2022-11-24T13:00:56.206Z,1.70
2022-11-24T13:03:26.142Z,2.47
2022-11-24T13:06:10.650Z,1.80
2022-11-24T13:08:38.218Z,1.70
2022-11-24T13:11:23.729Z,2.20
2022-11-24T13:14:20.071Z,1.90
2022-11-24T13:17:27.860Z,2.20
2022-11-24T13:19:46.757Z,4.57
2022-11-24T13:22:24.196Z,3.10
2022-11-24T13:25:17.296Z,2.70
2022-11-24T13:27:46.657Z,2.70
2022-11-24T13:30:35.539Z,35.73
2022-11-24T13:33:16.190Z,5.67
2022-11-24T13:36:02.517Z,3.73
2022-11-24T13:38:53.655Z,5.70
2022-11-24T13:41:33.252Z,5.80
2022-11-24T13:44:15.640Z,4.17
2022-11-24T13:47:06.060Z,4.60
2022-11-24T13:49:41.896Z,2.33
2022-11-24T13:52:40.071Z,2.10
2022-11-24T13:55:13.596Z,2.03
2022-11-24T13:57:45.430Z,2.50
2022-11-24T14:00:19.754Z,2.07
2022-11-24T14:02:47.669Z,2.40
2022-11-24T14:05:16.763Z,2.73
2022-11-24T14:07:46.594Z,2.33
2022-11-24T14:10:21.159Z,3.00
2022-11-24T14:13:08.344Z,2.33
2022-11-24T14:15:36.424Z,3.50
2022-11-24T14:18:17.125Z,2.53
2022-11-24T14:20:44.319Z,2.73
2022-11-24T14:23:11.546Z,2.47
2022-11-24T14:25:38.822Z,2.47
2022-11-24T14:28:21.502Z,2.50
2022-11-24T14:30:48.799Z,2.70
2022-11-24T14:33:18.833Z,2.83
2022-11-24T14:35:49.289Z,2.80
2022-11-24T14:38:17.041Z,2.33
2022-11-24T14:40:50.228Z,2.40
2022-11-24T14:43:21.165Z,2.20
2022-11-24T14:45:54.672Z,2.50
2022-11-24T14:48:31.414Z,2.60
2022-11-24T14:51:08.183Z,2.30
2022-11-24T14:53:35.862Z,2.30
2022-11-24T14:56:27.711Z,2.13
2022-11-24T14:58:56.513Z,2.00
2022-11-24T15:01:36.090Z,1.90
2022-11-24T15:07:30.678Z,1.63
2022-11-24T15:10:02.338Z,1.70
2022-11-24T15:12:36.919Z,1.70
2022-11-24T15:15:20.186Z,1.67
2022-11-24T15:17:54.007Z,1.70
2022-11-24T15:20:31.933Z,1.80
2022-11-24T15:23:35.113Z,1.73
2022-11-24T15:26:02.252Z,1.73
2022-11-24T15:28:31.045Z,1.60
2022-11-24T15:31:11.915Z,1.80
2022-11-24T15:33:40.066Z,1.70
2022-11-24T15:36:07.678Z,1.30
2022-11-24T15:38:35.486Z,2.30
2022-11-24T15:41:11.873Z,2.00
2022-11-24T15:43:40.461Z,1.93
2022-11-24T15:46:08.759Z,4.27
2022-11-24T15:48:36.213Z,2.47
2022-11-24T15:51:06.311Z,2.30
2022-11-24T15:53:45.654Z,3.47
2022-11-24T15:56:18.988Z,5.40
2022-11-24T15:58:46.141Z,5.17
2022-11-24T16:01:13.335Z,5.50
2022-11-24T16:03:48.861Z,5.13
2022-11-24T16:06:24.552Z,8.77
2022-11-24T16:08:55.865Z,9.03
2022-11-24T16:11:23.151Z,8.00
2022-11-24T16:13:53.228Z,5.00
2022-11-24T16:16:25.190Z,6.97
2022-11-24T16:18:52.825Z,8.53
2022-11-24T16:21:19.975Z,7.13
2022-11-24T16:23:47.837Z,14.47
2022-11-24T16:26:15.041Z,17.40
2022-11-24T16:28:42.739Z,44.50
2022-11-24T16:31:09.937Z,20.20
2022-11-24T16:33:40.566Z,16.87
2022-11-24T16:36:08.351Z,4.13
2022-11-24T16:38:35.623Z,4.40
2022-11-24T16:41:02.856Z,4.03
2022-11-24T16:43:30.374Z,4.60
2022-11-24T16:46:20.905Z,3.37
2022-11-24T16:48:51.113Z,3.47
2022-11-24T16:51:20.744Z,3.43
2022-11-24T16:53:48.471Z,3.67
2022-11-24T16:56:16.549Z,3.03
2022-11-24T16:58:43.726Z,3.00
2022-11-24T17:01:12.856Z,3.40
2022-11-24T17:03:40.726Z,3.10
2022-11-24T17:06:10.204Z,3.30
2022-11-24T17:08:39.690Z,3.00
2022-11-24T17:11:12.100Z,3.50
2022-11-24T17:13:39.717Z,4.50
2022-11-24T17:16:09.451Z,4.37
2022-11-24T17:18:37.174Z,4.20
2022-11-24T17:21:09.441Z,4.60
2022-11-24T17:23:37.551Z,5.57
2022-11-24T17:26:11.494Z,5.57
2022-11-24T17:28:39.480Z,6.07
2022-11-24T17:31:17.879Z,4.77
2022-11-24T17:33:45.055Z,5.80
2022-11-24T17:36:12.222Z,6.00
2022-11-24T17:38:39.378Z,9.33
2022-11-24T17:41:06.530Z,6.60
2022-11-24T17:43:33.746Z,6.97
2022-11-24T17:46:02.180Z,10.27
2022-11-24T17:48:30.762Z,10.87
2022-11-24T17:51:07.823Z,10.50
2022-11-24T17:53:39.133Z,10.70
2022-11-24T17:56:07.876Z,9.87
2022-11-24T17:58:39.823Z,10.23
2022-11-24T18:01:10.927Z,8.73
2022-11-24T18:03:41.686Z,9.30
2022-11-24T18:06:16.108Z,8.90
2022-11-24T18:08:45.262Z,8.37
2022-11-24T18:11:15.370Z,8.20
2022-11-24T18:14:01.205Z,8.00
2022-11-24T18:16:34.196Z,7.50
2022-11-24T18:19:11.668Z,8.60
2022-11-24T18:21:44.638Z,9.97
2022-11-24T18:24:12.990Z,11.00
2022-11-24T18:26:42.432Z,31.73
2022-11-24T18:29:11.276Z,21.07
2022-11-24T18:31:39.107Z,24.17
2022-11-24T18:34:06.891Z,23.47
2022-11-24T18:36:34.890Z,27.30
2022-11-24T18:39:03.843Z,27.20
2022-11-24T18:41:31.802Z,27.23
2022-11-24T18:44:02.182Z,26.80
2022-11-24T18:46:29.483Z,21.03
2022-11-24T18:48:56.750Z,25.60
2022-11-24T18:51:23.913Z,25.17
2022-11-24T18:53:58.102Z,26.70
2022-11-24T18:56:26.393Z,28.13
2022-11-24T18:58:55.419Z,47.60
2022-11-24T19:01:25.260Z,20.77
2022-11-24T19:03:55.598Z,15.17
2022-11-24T19:06:32.230Z,16.10
2022-11-24T19:09:14.537Z,16.37
2022-11-24T19:11:44.178Z,16.37
2022-11-24T19:14:14.202Z,17.40
2022-11-24T19:16:43.365Z,16.83
2022-11-24T19:19:13.856Z,16.00
2022-11-24T19:21:41.080Z,16.93
2022-11-24T19:24:18.671Z,16.37
2022-11-24T19:26:45.983Z,15.60
2022-11-24T19:29:13.129Z,16.13
2022-11-24T19:31:40.456Z,16.00
2022-11-24T19:34:08.307Z,15.63
2022-11-24T19:36:36.263Z,14.77
2022-11-24T19:39:04.890Z,12.33
2022-11-24T19:41:33.106Z,12.57
2022-11-24T19:44:00.638Z,11.43
2022-11-24T19:46:29.377Z,13.33
2022-11-24T19:48:59.446Z,19.80
2022-11-24T19:51:32.413Z,23.63
2022-11-24T19:54:00.406Z,17.50
2022-11-24T19:56:29.543Z,13.20
2022-11-24T19:58:57.154Z,11.97
2022-11-24T20:01:27.668Z,10.77
2022-11-24T20:04:07.057Z,11.80
2022-11-24T20:06:36.944Z,9.83
2022-11-24T20:09:06.926Z,9.80
2022-11-24T20:11:34.531Z,14.30
2022-11-24T20:14:01.735Z,12.90
2022-11-24T20:16:31.108Z,15.27
2022-11-24T20:19:06.179Z,15.07
2022-11-24T20:21:35.071Z,13.47
2022-11-24T20:24:07.763Z,12.90
2022-11-24T20:26:38.227Z,10.93
2022-11-24T20:29:06.130Z,9.70
2022-11-24T20:31:35.984Z,10.17
2022-11-24T20:34:05.145Z,9.73
2022-11-24T20:36:34.102Z,10.33
2022-11-24T20:39:04.670Z,9.37
2022-11-24T20:41:37.149Z,8.43
2022-11-24T20:44:10.489Z,9.33
2022-11-24T20:46:39.290Z,8.63
2022-11-24T20:49:09.027Z,8.73
2022-11-24T20:51:39.716Z,10.03
2022-11-24T20:54:08.761Z,8.83
2022-11-24T20:56:39.631Z,8.70
2022-11-24T20:59:08.237Z,8.90
2022-11-24T21:01:38.993Z,10.10
2022-11-24T21:04:08.537Z,8.90
2022-11-24T21:06:36.354Z,7.33
2022-11-24T21:09:04.667Z,8.63
2022-11-24T21:11:32.361Z,7.87
2022-11-24T21:14:00.224Z,8.30
2022-11-24T21:16:33.154Z,7.23
2022-11-24T21:19:04.387Z,8.20
2022-11-24T21:21:35.064Z,8.93
2022-11-24T21:24:07.519Z,8.53
2022-11-24T21:26:36.912Z,8.40
2022-11-24T21:29:04.951Z,7.93
2022-11-24T21:31:35.850Z,8.37
2022-11-24T21:34:03.701Z,8.50
2022-11-24T21:36:33.186Z,8.20
2022-11-24T21:39:01.991Z,7.60
2022-11-24T21:41:31.378Z,8.83
2022-11-24T21:43:58.557Z,7.67
2022-11-24T21:46:25.723Z,8.57
2022-11-24T21:48:53.830Z,7.10
2022-11-24T21:51:21.603Z,6.90
2022-11-24T21:53:48.766Z,5.13
2022-11-24T21:56:18.802Z,6.17
2022-11-24T21:58:48.351Z,5.80
2022-11-24T22:01:17.836Z,5.80
2022-11-24T22:03:45.782Z,5.20
2022-11-24T22:06:13.492Z,4.33
2022-11-24T22:08:40.715Z,4.70
2022-11-24T22:11:19.457Z,4.40
2022-11-24T22:13:47.471Z,4.43
2022-11-24T22:16:22.923Z,4.23
2022-11-24T22:18:50.700Z,4.10
2022-11-24T22:21:33.401Z,3.80
2022-11-24T22:24:01.235Z,3.70
2022-11-24T22:26:29.547Z,3.47
2022-11-24T22:28:58.090Z,3.60
2022-11-24T22:31:31.029Z,3.00
2022-11-24T22:33:59.829Z,4.73
2022-11-24T22:36:28.727Z,3.80
2022-11-24T22:39:03.040Z,3.37
2022-11-24T22:41:35.158Z,3.10
2022-11-24T22:44:02.640Z,2.63
2022-11-24T22:46:31.207Z,2.97
2022-11-24T22:49:00.247Z,3.03
2022-11-24T22:51:29.910Z,2.97
2022-11-24T22:54:02.445Z,2.83
2022-11-24T22:56:32.096Z,3.30
2022-11-24T22:59:04.379Z,2.80
2022-11-24T23:01:33.614Z,3.00
2022-11-24T23:04:02.227Z,3.07
2022-11-24T23:06:31.410Z,3.30
2022-11-24T23:09:00.098Z,3.50
2022-11-24T23:11:37.720Z,2.63
2022-11-24T23:14:08.115Z,3.47
2022-11-24T23:16:35.334Z,3.20
2022-11-24T23:19:02.749Z,3.03
2022-11-24T23:21:31.896Z,2.33
2022-11-24T23:24:00.848Z,2.90
2022-11-24T23:26:30.681Z,2.50
2022-11-24T23:28:58.317Z,2.13
2022-11-24T23:31:28.541Z,2.30
2022-11-24T23:34:00.834Z,2.20
2022-11-24T23:36:29.181Z,2.10
2022-11-24T23:38:56.742Z,2.30
2022-11-24T23:41:25.610Z,2.40
2022-11-24T23:43:53.109Z,2.47
2022-11-24T23:46:22.666Z,2.77
2022-11-24T23:48:51.301Z,2.70
2022-11-24T23:51:21.115Z,2.53
2022-11-24T23:53:49.152Z,2.57
2022-11-24T23:56:25.373Z,2.33
2022-11-24T23:58:52.681Z,2.80
